sensor_id;sensor_type;location;lat;lon;timestamp;temperature;humidity
15690;DHT22;7945;48.816;11.506;2022-10-17T00:00:31;16.50;99.90
15690;DHT22;7945;48.816;11.506;2022-10-17T00:02:58;16.50;99.90
15690;DHT22;7945;48.816;11.506;2022-10-17T00:05:24;16.50;99.90
15690;DHT22;7945;48.816;11.506;2022-10-17T00:07:54;16.50;99.90
15690;DHT22;7945;48.816;11.506;2022-10-17T00:10:20;16.50;99.90
15690;DHT22;7945;48.816;11.506;2022-10-17T00:12:49;16.40;99.90
15690;DHT22;7945;48.816;11.506;2022-10-17T00:15:18;16.40;99.90
15690;DHT22;7945;48.816;11.506;2022-10-17T00:17:45;16.40;99.90
15690;DHT22;7945;48.816;11.506;2022-10-17T00:20:12;16.40;99.90
15690;DHT22;7945;48.816;11.506;2022-10-17T00:22:39;16.30;99.90
15690;DHT22;7945;48.816;11.506;2022-10-17T00:25:08;16.30;99.90
15690;DHT22;7945;48.816;11.506;2022-10-17T00:27:35;16.30;99.90
15690;DHT22;7945;48.816;11.506;2022-10-17T00:30:03;16.30;99.90
15690;DHT22;7945;48.816;11.506;2022-10-17T00:32:30;16.30;99.90
15690;DHT22;7945;48.816;11.506;2022-10-17T00:34:57;16.20;99.90
15690;DHT22;7945;48.816;11.506;2022-10-17T00:37:24;16.20;99.90
15690;DHT22;7945;48.816;11.506;2022-10-17T00:39:51;16.20;99.90
15690;DHT22;7945;48.816;11.506;2022-10-17T00:42:19;16.20;99.90
15690;DHT22;7945;48.816;11.506;2022-10-17T00:45:03;16.30;99.90
15690;DHT22;7945;48.816;11.506;2022-10-17T00:47:30;16.30;99.90
15690;DHT22;7945;48.816;11.506;2022-10-17T00:49:58;16.30;99.90
15690;DHT22;7945;48.816;11.506;2022-10-17T00:52:27;16.30;99.90
15690;DHT22;7945;48.816;11.506;2022-10-17T00:54:57;16.30;99.90
15690;DHT22;7945;48.816;11.506;2022-10-17T00:57:28;16.30;99.90
15690;DHT22;7945;48.816;11.506;2022-10-17T00:59:56;16.30;99.90
15690;DHT22;7945;48.816;11.506;2022-10-17T01:02:25;16.30;99.90
15690;DHT22;7945;48.816;11.506;2022-10-17T01:04:53;16.40;99.90
15690;DHT22;7945;48.816;11.506;2022-10-17T01:07:24;16.30;99.90
15690;DHT22;7945;48.816;11.506;2022-10-17T01:09:51;16.30;99.90
15690;DHT22;7945;48.816;11.506;2022-10-17T01:12:20;16.30;99.90
15690;DHT22;7945;48.816;11.506;2022-10-17T01:15:01;16.20;99.90
15690;DHT22;7945;48.816;11.506;2022-10-17T01:17:34;16.20;99.90
15690;DHT22;7945;48.816;11.506;2022-10-17T01:20:40;16.20;99.90
15690;DHT22;7945;48.816;11.506;2022-10-17T01:26:15;16.10;99.90
15690;DHT22;7945;48.816;11.506;2022-10-17T01:29:04;16.10;99.90
15690;DHT22;7945;48.816;11.506;2022-10-17T01:31:37;16.10;99.90
15690;DHT22;7945;48.816;11.506;2022-10-17T01:34:11;16.00;99.90
15690;DHT22;7945;48.816;11.506;2022-10-17T01:36:44;16.00;99.90
15690;DHT22;7945;48.816;11.506;2022-10-17T01:39:18;16.00;99.90
15690;DHT22;7945;48.816;11.506;2022-10-17T01:41:50;15.90;99.90
15690;DHT22;7945;48.816;11.506;2022-10-17T01:44:19;15.90;99.90
15690;DHT22;7945;48.816;11.506;2022-10-17T01:46:51;15.80;99.90
15690;DHT22;7945;48.816;11.506;2022-10-17T01:49:23;15.80;99.90
15690;DHT22;7945;48.816;11.506;2022-10-17T01:51:54;15.80;99.90
15690;DHT22;7945;48.816;11.506;2022-10-17T01:54:24;15.70;99.90
15690;DHT22;7945;48.816;11.506;2022-10-17T01:56:57;15.70;99.90
15690;DHT22;7945;48.816;11.506;2022-10-17T01:59:28;15.70;99.90
15690;DHT22;7945;48.816;11.506;2022-10-17T02:01:57;15.70;99.90
15690;DHT22;7945;48.816;11.506;2022-10-17T02:04:25;15.80;99.90
15690;DHT22;7945;48.816;11.506;2022-10-17T02:06:52;15.80;99.90
15690;DHT22;7945;48.816;11.506;2022-10-17T02:09:21;15.90;99.90
15690;DHT22;7945;48.816;11.506;2022-10-17T02:12:11;15.80;99.90
15690;DHT22;7945;48.816;11.506;2022-10-17T02:14:49;15.80;99.90
15690;DHT22;7945;48.816;11.506;2022-10-17T02:17:29;15.80;99.90
15690;DHT22;7945;48.816;11.506;2022-10-17T02:20:04;15.80;99.90
15690;DHT22;7945;48.816;11.506;2022-10-17T02:22:39;15.90;99.90
15690;DHT22;7945;48.816;11.506;2022-10-17T02:25:11;15.80;99.90
15690;DHT22;7945;48.816;11.506;2022-10-17T02:27:43;15.80;99.90
15690;DHT22;7945;48.816;11.506;2022-10-17T02:30:13;15.80;99.90
15690;DHT22;7945;48.816;11.506;2022-10-17T02:32:47;15.80;99.90
15690;DHT22;7945;48.816;11.506;2022-10-17T02:35:17;15.70;99.90
15690;DHT22;7945;48.816;11.506;2022-10-17T02:37:46;15.70;99.90
15690;DHT22;7945;48.816;11.506;2022-10-17T02:40:16;15.90;99.90
15690;DHT22;7945;48.816;11.506;2022-10-17T02:42:44;15.70;99.90
15690;DHT22;7945;48.816;11.506;2022-10-17T02:45:13;15.60;99.90
15690;DHT22;7945;48.816;11.506;2022-10-17T02:47:49;15.70;99.90
15690;DHT22;7945;48.816;11.506;2022-10-17T02:50:30;15.70;99.90
15690;DHT22;7945;48.816;11.506;2022-10-17T02:53:03;15.60;99.90
15690;DHT22;7945;48.816;11.506;2022-10-17T02:55:32;15.60;99.90
15690;DHT22;7945;48.816;11.506;2022-10-17T02:58:05;15.60;99.90
15690;DHT22;7945;48.816;11.506;2022-10-17T03:00:33;15.60;99.90
15690;DHT22;7945;48.816;11.506;2022-10-17T03:06:23;15.50;99.90
15690;DHT22;7945;48.816;11.506;2022-10-17T03:08:50;15.40;99.90
15690;DHT22;7945;48.816;11.506;2022-10-17T03:11:17;15.40;99.90
15690;DHT22;7945;48.816;11.506;2022-10-17T03:13:44;15.40;99.90
15690;DHT22;7945;48.816;11.506;2022-10-17T03:16:10;15.40;99.90
15690;DHT22;7945;48.816;11.506;2022-10-17T03:18:37;15.40;99.90
15690;DHT22;7945;48.816;11.506;2022-10-17T03:21:04;15.50;99.90
15690;DHT22;7945;48.816;11.506;2022-10-17T03:23:32;15.50;99.90
15690;DHT22;7945;48.816;11.506;2022-10-17T03:26:02;15.40;99.90
15690;DHT22;7945;48.816;11.506;2022-10-17T03:28:29;15.40;99.90
15690;DHT22;7945;48.816;11.506;2022-10-17T03:30:56;15.40;99.90
15690;DHT22;7945;48.816;11.506;2022-10-17T03:33:22;15.40;99.90
15690;DHT22;7945;48.816;11.506;2022-10-17T03:35:49;15.30;99.90
15690;DHT22;7945;48.816;11.506;2022-10-17T03:38:16;15.30;99.90
15690;DHT22;7945;48.816;11.506;2022-10-17T03:40:44;15.40;99.90
15690;DHT22;7945;48.816;11.506;2022-10-17T03:43:19;15.30;99.90
15690;DHT22;7945;48.816;11.506;2022-10-17T03:45:46;15.30;99.90
15690;DHT22;7945;48.816;11.506;2022-10-17T03:48:13;15.20;99.90
15690;DHT22;7945;48.816;11.506;2022-10-17T03:50:39;15.30;99.90
15690;DHT22;7945;48.816;11.506;2022-10-17T03:53:06;15.30;99.90
15690;DHT22;7945;48.816;11.506;2022-10-17T03:55:33;15.30;99.90
15690;DHT22;7945;48.816;11.506;2022-10-17T03:58:01;15.30;99.90
15690;DHT22;7945;48.816;11.506;2022-10-17T04:00:28;15.40;99.90
15690;DHT22;7945;48.816;11.506;2022-10-17T04:02:56;15.30;99.90
15690;DHT22;7945;48.816;11.506;2022-10-17T04:05:23;15.20;99.90
15690;DHT22;7945;48.816;11.506;2022-10-17T04:07:50;15.20;99.90
15690;DHT22;7945;48.816;11.506;2022-10-17T04:10:16;15.20;99.90
15690;DHT22;7945;48.816;11.506;2022-10-17T04:12:43;15.20;99.90
15690;DHT22;7945;48.816;11.506;2022-10-17T04:15:12;15.20;99.90
15690;DHT22;7945;48.816;11.506;2022-10-17T04:17:39;15.20;99.90
15690;DHT22;7945;48.816;11.506;2022-10-17T04:20:07;15.20;99.90
15690;DHT22;7945;48.816;11.506;2022-10-17T04:22:33;15.20;99.90
15690;DHT22;7945;48.816;11.506;2022-10-17T04:25:00;15.20;99.90
15690;DHT22;7945;48.816;11.506;2022-10-17T04:27:27;15.10;99.90
15690;DHT22;7945;48.816;11.506;2022-10-17T04:29:54;15.10;99.90
15690;DHT22;7945;48.816;11.506;2022-10-17T04:32:22;15.10;99.90
15690;DHT22;7945;48.816;11.506;2022-10-17T04:34:50;15.10;99.90
15690;DHT22;7945;48.816;11.506;2022-10-17T04:37:17;15.00;99.90
15690;DHT22;7945;48.816;11.506;2022-10-17T04:39:43;15.00;99.90
15690;DHT22;7945;48.816;11.506;2022-10-17T04:42:10;15.00;99.90
15690;DHT22;7945;48.816;11.506;2022-10-17T04:44:37;15.00;99.90
15690;DHT22;7945;48.816;11.506;2022-10-17T04:47:04;14.90;99.90
15690;DHT22;7945;48.816;11.506;2022-10-17T04:49:32;15.00;99.90
15690;DHT22;7945;48.816;11.506;2022-10-17T04:51:58;15.00;99.90
15690;DHT22;7945;48.816;11.506;2022-10-17T04:54:25;15.00;99.90
15690;DHT22;7945;48.816;11.506;2022-10-17T04:56:52;14.90;99.90
15690;DHT22;7945;48.816;11.506;2022-10-17T04:59:19;14.90;99.90
15690;DHT22;7945;48.816;11.506;2022-10-17T05:01:47;14.90;99.90
15690;DHT22;7945;48.816;11.506;2022-10-17T05:04:14;14.90;99.90
15690;DHT22;7945;48.816;11.506;2022-10-17T05:06:42;14.90;99.90
15690;DHT22;7945;48.816;11.506;2022-10-17T05:09:09;14.80;99.90
15690;DHT22;7945;48.816;11.506;2022-10-17T05:11:36;14.80;99.90
15690;DHT22;7945;48.816;11.506;2022-10-17T05:14:02;14.80;99.90
15690;DHT22;7945;48.816;11.506;2022-10-17T05:16:29;14.80;99.90
15690;DHT22;7945;48.816;11.506;2022-10-17T05:18:57;14.80;99.90
15690;DHT22;7945;48.816;11.506;2022-10-17T05:21:25;14.80;99.90
15690;DHT22;7945;48.816;11.506;2022-10-17T05:23:54;14.70;99.90
15690;DHT22;7945;48.816;11.506;2022-10-17T05:26:21;14.70;99.90
15690;DHT22;7945;48.816;11.506;2022-10-17T05:28:48;14.70;99.90
15690;DHT22;7945;48.816;11.506;2022-10-17T05:31:17;14.70;99.90
15690;DHT22;7945;48.816;11.506;2022-10-17T05:33:43;14.70;99.90
15690;DHT22;7945;48.816;11.506;2022-10-17T05:36:10;14.60;99.90
15690;DHT22;7945;48.816;11.506;2022-10-17T05:38:37;14.60;99.90
15690;DHT22;7945;48.816;11.506;2022-10-17T05:41:05;14.60;99.90
15690;DHT22;7945;48.816;11.506;2022-10-17T05:43:32;14.60;99.90
15690;DHT22;7945;48.816;11.506;2022-10-17T05:46:03;14.60;99.90
15690;DHT22;7945;48.816;11.506;2022-10-17T05:48:29;14.60;99.90
15690;DHT22;7945;48.816;11.506;2022-10-17T05:50:57;14.60;99.90
15690;DHT22;7945;48.816;11.506;2022-10-17T05:53:24;14.60;99.90
15690;DHT22;7945;48.816;11.506;2022-10-17T05:55:55;14.60;99.90
15690;DHT22;7945;48.816;11.506;2022-10-17T05:58:24;14.60;99.90
15690;DHT22;7945;48.816;11.506;2022-10-17T06:00:51;14.60;99.90
15690;DHT22;7945;48.816;11.506;2022-10-17T06:03:22;14.70;99.90
15690;DHT22;7945;48.816;11.506;2022-10-17T06:05:49;14.70;99.90
15690;DHT22;7945;48.816;11.506;2022-10-17T06:08:17;14.70;99.90
15690;DHT22;7945;48.816;11.506;2022-10-17T06:10:46;14.80;99.90
15690;DHT22;7945;48.816;11.506;2022-10-17T06:14:47;14.80;99.90
15690;DHT22;7945;48.816;11.506;2022-10-17T06:17:14;14.80;99.90
15690;DHT22;7945;48.816;11.506;2022-10-17T06:19:41;14.80;99.90
15690;DHT22;7945;48.816;11.506;2022-10-17T06:22:09;14.80;99.90
15690;DHT22;7945;48.816;11.506;2022-10-17T06:24:36;14.80;99.90
15690;DHT22;7945;48.816;11.506;2022-10-17T06:27:03;14.80;99.90
15690;DHT22;7945;48.816;11.506;2022-10-17T06:29:30;14.70;99.90
15690;DHT22;7945;48.816;11.506;2022-10-17T06:31:58;14.70;99.90
15690;DHT22;7945;48.816;11.506;2022-10-17T06:34:24;14.70;99.90
15690;DHT22;7945;48.816;11.506;2022-10-17T06:36:52;14.70;99.90
15690;DHT22;7945;48.816;11.506;2022-10-17T06:39:19;14.70;99.90
15690;DHT22;7945;48.816;11.506;2022-10-17T06:41:46;14.70;99.90
15690;DHT22;7945;48.816;11.506;2022-10-17T06:44:13;14.70;99.90
15690;DHT22;7945;48.816;11.506;2022-10-17T06:46:40;14.60;99.90
15690;DHT22;7945;48.816;11.506;2022-10-17T06:49:09;14.60;99.90
15690;DHT22;7945;48.816;11.506;2022-10-17T06:51:36;14.60;99.90
15690;DHT22;7945;48.816;11.506;2022-10-17T06:54:03;14.60;99.90
15690;DHT22;7945;48.816;11.506;2022-10-17T06:56:30;14.60;99.90
15690;DHT22;7945;48.816;11.506;2022-10-17T06:58:57;14.60;99.90
15690;DHT22;7945;48.816;11.506;2022-10-17T07:01:23;14.60;99.90
15690;DHT22;7945;48.816;11.506;2022-10-17T07:03:51;14.60;99.90
15690;DHT22;7945;48.816;11.506;2022-10-17T07:06:19;14.70;99.90
15690;DHT22;7945;48.816;11.506;2022-10-17T07:08:48;14.70;99.90
15690;DHT22;7945;48.816;11.506;2022-10-17T07:11:17;14.60;99.90
15690;DHT22;7945;48.816;11.506;2022-10-17T07:13:45;14.60;99.90
15690;DHT22;7945;48.816;11.506;2022-10-17T07:16:12;14.60;99.90
15690;DHT22;7945;48.816;11.506;2022-10-17T07:18:39;14.60;99.90
15690;DHT22;7945;48.816;11.506;2022-10-17T07:21:06;14.60;99.90
15690;DHT22;7945;48.816;11.506;2022-10-17T07:23:34;14.60;99.90
15690;DHT22;7945;48.816;11.506;2022-10-17T07:26:04;14.60;99.90
15690;DHT22;7945;48.816;11.506;2022-10-17T07:28:32;14.60;99.90
15690;DHT22;7945;48.816;11.506;2022-10-17T07:31:02;14.60;99.90
15690;DHT22;7945;48.816;11.506;2022-10-17T07:33:30;14.60;99.90
15690;DHT22;7945;48.816;11.506;2022-10-17T07:35:58;14.50;99.90
15690;DHT22;7945;48.816;11.506;2022-10-17T07:38:25;14.50;99.90
15690;DHT22;7945;48.816;11.506;2022-10-17T07:40:57;14.50;99.90
15690;DHT22;7945;48.816;11.506;2022-10-17T07:43:25;14.50;99.90
15690;DHT22;7945;48.816;11.506;2022-10-17T07:45:52;14.50;99.90
15690;DHT22;7945;48.816;11.506;2022-10-17T07:48:20;14.50;99.90
15690;DHT22;7945;48.816;11.506;2022-10-17T07:50:48;14.50;99.90
15690;DHT22;7945;48.816;11.506;2022-10-17T07:53:15;14.50;99.90
15690;DHT22;7945;48.816;11.506;2022-10-17T07:55:42;14.50;99.90
15690;DHT22;7945;48.816;11.506;2022-10-17T07:58:10;14.60;99.90
15690;DHT22;7945;48.816;11.506;2022-10-17T08:00:38;14.70;99.90
15690;DHT22;7945;48.816;11.506;2022-10-17T08:03:05;14.70;99.90
15690;DHT22;7945;48.816;11.506;2022-10-17T08:05:33;14.80;99.90
15690;DHT22;7945;48.816;11.506;2022-10-17T08:07:59;14.80;99.90
15690;DHT22;7945;48.816;11.506;2022-10-17T08:10:26;14.80;99.90
15690;DHT22;7945;48.816;11.506;2022-10-17T08:12:54;14.90;99.90
15690;DHT22;7945;48.816;11.506;2022-10-17T08:15:23;14.90;99.90
15690;DHT22;7945;48.816;11.506;2022-10-17T08:17:50;15.00;99.90
15690;DHT22;7945;48.816;11.506;2022-10-17T08:20:20;15.10;99.90
15690;DHT22;7945;48.816;11.506;2022-10-17T08:22:51;15.10;99.90
15690;DHT22;7945;48.816;11.506;2022-10-17T08:25:18;15.20;99.90
15690;DHT22;7945;48.816;11.506;2022-10-17T08:27:44;15.30;99.90
15690;DHT22;7945;48.816;11.506;2022-10-17T08:30:11;15.40;99.90
15690;DHT22;7945;48.816;11.506;2022-10-17T08:32:40;15.40;99.90
15690;DHT22;7945;48.816;11.506;2022-10-17T08:35:07;15.50;99.90
15690;DHT22;7945;48.816;11.506;2022-10-17T08:37:34;15.50;99.90
15690;DHT22;7945;48.816;11.506;2022-10-17T08:40:01;15.50;99.90
15690;DHT22;7945;48.816;11.506;2022-10-17T08:42:44;15.50;99.90
15690;DHT22;7945;48.816;11.506;2022-10-17T08:45:20;15.50;99.90
15690;DHT22;7945;48.816;11.506;2022-10-17T08:47:58;15.50;99.90
15690;DHT22;7945;48.816;11.506;2022-10-17T08:50:38;15.50;99.90
15690;DHT22;7945;48.816;11.506;2022-10-17T08:53:10;15.60;99.90
15690;DHT22;7945;48.816;11.506;2022-10-17T08:55:43;15.60;99.90
15690;DHT22;7945;48.816;11.506;2022-10-17T08:58:12;15.60;99.90
15690;DHT22;7945;48.816;11.506;2022-10-17T09:00:41;15.70;99.90
15690;DHT22;7945;48.816;11.506;2022-10-17T09:03:20;15.70;99.90
15690;DHT22;7945;48.816;11.506;2022-10-17T09:05:51;15.80;99.90
15690;DHT22;7945;48.816;11.506;2022-10-17T09:08:28;15.90;99.90
15690;DHT22;7945;48.816;11.506;2022-10-17T09:11:04;16.00;99.90
15690;DHT22;7945;48.816;11.506;2022-10-17T09:13:53;16.10;99.90
15690;DHT22;7945;48.816;11.506;2022-10-17T09:16:40;16.20;99.90
15690;DHT22;7945;48.816;11.506;2022-10-17T09:19:17;16.30;99.90
15690;DHT22;7945;48.816;11.506;2022-10-17T09:21:47;16.20;99.90
15690;DHT22;7945;48.816;11.506;2022-10-17T09:24:18;16.30;99.90
15690;DHT22;7945;48.816;11.506;2022-10-17T09:26:47;16.30;99.90
15690;DHT22;7945;48.816;11.506;2022-10-17T09:29:20;16.40;99.90
15690;DHT22;7945;48.816;11.506;2022-10-17T09:31:53;16.50;99.90
15690;DHT22;7945;48.816;11.506;2022-10-17T09:34:22;16.60;99.90
15690;DHT22;7945;48.816;11.506;2022-10-17T09:36:50;16.70;99.90
15690;DHT22;7945;48.816;11.506;2022-10-17T09:39:19;16.80;99.90
15690;DHT22;7945;48.816;11.506;2022-10-17T09:41:50;16.90;99.90
15690;DHT22;7945;48.816;11.506;2022-10-17T09:44:20;17.00;99.90
15690;DHT22;7945;48.816;11.506;2022-10-17T09:47:12;17.10;99.90
15690;DHT22;7945;48.816;11.506;2022-10-17T09:49:43;17.20;99.90
15690;DHT22;7945;48.816;11.506;2022-10-17T09:52:13;17.20;99.90
15690;DHT22;7945;48.816;11.506;2022-10-17T09:54:43;17.30;99.90
15690;DHT22;7945;48.816;11.506;2022-10-17T09:57:12;17.40;99.90
15690;DHT22;7945;48.816;11.506;2022-10-17T09:59:40;17.40;99.90
15690;DHT22;7945;48.816;11.506;2022-10-17T10:02:15;17.50;99.90
15690;DHT22;7945;48.816;11.506;2022-10-17T10:04:55;17.70;99.90
15690;DHT22;7945;48.816;11.506;2022-10-17T10:07:23;17.90;99.90
15690;DHT22;7945;48.816;11.506;2022-10-17T10:09:50;18.10;99.90
15690;DHT22;7945;48.816;11.506;2022-10-17T10:12:19;18.20;99.90
15690;DHT22;7945;48.816;11.506;2022-10-17T10:14:46;18.60;99.90
15690;DHT22;7945;48.816;11.506;2022-10-17T10:17:28;18.70;99.90
15690;DHT22;7945;48.816;11.506;2022-10-17T10:19:56;19.00;99.90
15690;DHT22;7945;48.816;11.506;2022-10-17T10:22:23;19.10;99.90
15690;DHT22;7945;48.816;11.506;2022-10-17T10:25:06;19.20;99.90
15690;DHT22;7945;48.816;11.506;2022-10-17T10:27:33;19.20;99.90
15690;DHT22;7945;48.816;11.506;2022-10-17T10:30:01;19.20;99.90
15690;DHT22;7945;48.816;11.506;2022-10-17T10:32:29;19.30;99.90
15690;DHT22;7945;48.816;11.506;2022-10-17T10:35:01;19.40;99.90
15690;DHT22;7945;48.816;11.506;2022-10-17T10:37:32;19.40;99.90
15690;DHT22;7945;48.816;11.506;2022-10-17T10:40:02;19.40;99.90
15690;DHT22;7945;48.816;11.506;2022-10-17T10:42:31;19.30;99.90
15690;DHT22;7945;48.816;11.506;2022-10-17T10:45:03;19.40;99.90
15690;DHT22;7945;48.816;11.506;2022-10-17T10:47:31;19.40;99.90
15690;DHT22;7945;48.816;11.506;2022-10-17T10:50:21;19.50;99.90
15690;DHT22;7945;48.816;11.506;2022-10-17T10:52:53;19.60;99.90
15690;DHT22;7945;48.816;11.506;2022-10-17T10:55:25;19.50;99.90
15690;DHT22;7945;48.816;11.506;2022-10-17T10:57:59;19.50;99.90
15690;DHT22;7945;48.816;11.506;2022-10-17T11:00:30;19.40;99.90
15690;DHT22;7945;48.816;11.506;2022-10-17T11:03:01;19.80;99.90
15690;DHT22;7945;48.816;11.506;2022-10-17T11:05:43;19.60;99.90
15690;DHT22;7945;48.816;11.506;2022-10-17T11:08:17;19.60;99.90
15690;DHT22;7945;48.816;11.506;2022-10-17T11:10:58;19.70;99.90
15690;DHT22;7945;48.816;11.506;2022-10-17T11:13:30;19.80;99.90
15690;DHT22;7945;48.816;11.506;2022-10-17T11:16:03;19.90;99.90
15690;DHT22;7945;48.816;11.506;2022-10-17T11:18:36;20.00;99.90
15690;DHT22;7945;48.816;11.506;2022-10-17T11:21:12;20.10;99.90
15690;DHT22;7945;48.816;11.506;2022-10-17T11:23:45;20.20;99.90
15690;DHT22;7945;48.816;11.506;2022-10-17T11:26:16;20.30;99.90
15690;DHT22;7945;48.816;11.506;2022-10-17T11:28:50;20.50;99.90
15690;DHT22;7945;48.816;11.506;2022-10-17T11:31:19;20.50;99.90
15690;DHT22;7945;48.816;11.506;2022-10-17T11:33:49;20.50;99.90
15690;DHT22;7945;48.816;11.506;2022-10-17T11:36:22;20.50;99.90
15690;DHT22;7945;48.816;11.506;2022-10-17T11:38:52;20.50;99.90
15690;DHT22;7945;48.816;11.506;2022-10-17T11:41:28;20.50;99.90
15690;DHT22;7945;48.816;11.506;2022-10-17T11:44:01;20.60;99.90
15690;DHT22;7945;48.816;11.506;2022-10-17T11:46:30;20.60;99.90
15690;DHT22;7945;48.816;11.506;2022-10-17T11:49:06;20.50;99.90
15690;DHT22;7945;48.816;11.506;2022-10-17T11:51:43;20.50;99.90
15690;DHT22;7945;48.816;11.506;2022-10-17T11:54:13;20.50;99.90
15690;DHT22;7945;48.816;11.506;2022-10-17T11:56:44;20.50;99.90
15690;DHT22;7945;48.816;11.506;2022-10-17T11:59:40;20.50;99.90
15690;DHT22;7945;48.816;11.506;2022-10-17T12:02:15;20.50;99.90
15690;DHT22;7945;48.816;11.506;2022-10-17T12:04:51;20.40;99.90
15690;DHT22;7945;48.816;11.506;2022-10-17T12:07:26;20.30;99.90
15690;DHT22;7945;48.816;11.506;2022-10-17T12:10:00;20.30;99.90
15690;DHT22;7945;48.816;11.506;2022-10-17T12:12:34;20.20;99.90
15690;DHT22;7945;48.816;11.506;2022-10-17T12:15:34;20.20;99.90
15690;DHT22;7945;48.816;11.506;2022-10-17T12:18:02;20.20;99.90
15690;DHT22;7945;48.816;11.506;2022-10-17T12:20:31;20.20;99.90
15690;DHT22;7945;48.816;11.506;2022-10-17T12:25:49;20.30;99.90
15690;DHT22;7945;48.816;11.506;2022-10-17T12:28:19;20.30;99.90
15690;DHT22;7945;48.816;11.506;2022-10-17T12:30:50;20.40;99.90
15690;DHT22;7945;48.816;11.506;2022-10-17T12:33:18;20.40;99.90
15690;DHT22;7945;48.816;11.506;2022-10-17T12:35:47;20.40;99.90
15690;DHT22;7945;48.816;11.506;2022-10-17T12:38:25;20.40;99.90
15690;DHT22;7945;48.816;11.506;2022-10-17T12:41:00;20.40;99.90
15690;DHT22;7945;48.816;11.506;2022-10-17T12:43:54;20.30;99.90
15690;DHT22;7945;48.816;11.506;2022-10-17T12:46:42;20.40;99.90
15690;DHT22;7945;48.816;11.506;2022-10-17T12:49:21;20.40;99.90
15690;DHT22;7945;48.816;11.506;2022-10-17T12:52:14;20.40;99.90
15690;DHT22;7945;48.816;11.506;2022-10-17T12:54:45;20.50;99.90
15690;DHT22;7945;48.816;11.506;2022-10-17T12:57:18;20.50;99.90
15690;DHT22;7945;48.816;11.506;2022-10-17T12:59:46;20.60;99.90
15690;DHT22;7945;48.816;11.506;2022-10-17T13:02:18;20.70;99.90
15690;DHT22;7945;48.816;11.506;2022-10-17T13:04:46;20.80;99.90
15690;DHT22;7945;48.816;11.506;2022-10-17T13:07:17;20.90;99.90
15690;DHT22;7945;48.816;11.506;2022-10-17T13:09:46;21.10;99.90
15690;DHT22;7945;48.816;11.506;2022-10-17T13:12:16;21.20;99.90
15690;DHT22;7945;48.816;11.506;2022-10-17T13:14:44;21.20;99.90
15690;DHT22;7945;48.816;11.506;2022-10-17T13:17:21;21.20;99.90
15690;DHT22;7945;48.816;11.506;2022-10-17T13:19:49;21.30;99.90
15690;DHT22;7945;48.816;11.506;2022-10-17T13:22:18;21.40;99.90
15690;DHT22;7945;48.816;11.506;2022-10-17T13:24:47;21.40;99.90
15690;DHT22;7945;48.816;11.506;2022-10-17T13:27:26;21.40;99.90
15690;DHT22;7945;48.816;11.506;2022-10-17T13:29:54;21.50;99.90
15690;DHT22;7945;48.816;11.506;2022-10-17T13:32:22;21.50;99.90
15690;DHT22;7945;48.816;11.506;2022-10-17T13:35:06;21.50;99.90
15690;DHT22;7945;48.816;11.506;2022-10-17T13:37:34;21.50;99.90
15690;DHT22;7945;48.816;11.506;2022-10-17T13:40:03;21.50;99.90
15690;DHT22;7945;48.816;11.506;2022-10-17T13:42:37;21.40;99.90
15690;DHT22;7945;48.816;11.506;2022-10-17T13:45:15;21.40;99.90
15690;DHT22;7945;48.816;11.506;2022-10-17T13:47:43;21.50;99.90
15690;DHT22;7945;48.816;11.506;2022-10-17T13:50:19;21.50;99.90
15690;DHT22;7945;48.816;11.506;2022-10-17T13:52:46;21.50;99.90
15690;DHT22;7945;48.816;11.506;2022-10-17T13:55:16;21.60;99.90
15690;DHT22;7945;48.816;11.506;2022-10-17T13:57:44;21.60;99.90
15690;DHT22;7945;48.816;11.506;2022-10-17T14:00:17;21.60;99.90
15690;DHT22;7945;48.816;11.506;2022-10-17T14:02:44;21.70;99.90
15690;DHT22;7945;48.816;11.506;2022-10-17T14:05:14;21.70;99.60
15690;DHT22;7945;48.816;11.506;2022-10-17T14:07:43;21.70;99.80
15690;DHT22;7945;48.816;11.506;2022-10-17T14:10:20;21.80;99.70
15690;DHT22;7945;48.816;11.506;2022-10-17T14:12:47;21.90;99.60
15690;DHT22;7945;48.816;11.506;2022-10-17T14:15:15;21.80;99.10
15690;DHT22;7945;48.816;11.506;2022-10-17T14:17:43;21.80;99.30
15690;DHT22;7945;48.816;11.506;2022-10-17T14:20:17;21.80;99.30
15690;DHT22;7945;48.816;11.506;2022-10-17T14:22:44;21.80;99.30
15690;DHT22;7945;48.816;11.506;2022-10-17T14:28:13;21.80;99.20
15690;DHT22;7945;48.816;11.506;2022-10-17T14:30:41;21.80;99.10
15690;DHT22;7945;48.816;11.506;2022-10-17T14:33:13;21.70;99.20
15690;DHT22;7945;48.816;11.506;2022-10-17T14:35:48;21.70;99.10
15690;DHT22;7945;48.816;11.506;2022-10-17T14:38:16;21.70;98.90
15690;DHT22;7945;48.816;11.506;2022-10-17T14:40:49;21.70;99.30
15690;DHT22;7945;48.816;11.506;2022-10-17T14:43:22;21.70;99.30
15690;DHT22;7945;48.816;11.506;2022-10-17T14:45:51;21.70;99.30
15690;DHT22;7945;48.816;11.506;2022-10-17T14:48:20;21.70;99.30
15690;DHT22;7945;48.816;11.506;2022-10-17T14:51:06;21.70;99.10
15690;DHT22;7945;48.816;11.506;2022-10-17T14:53:33;21.70;99.10
15690;DHT22;7945;48.816;11.506;2022-10-17T14:56:01;21.70;99.70
15690;DHT22;7945;48.816;11.506;2022-10-17T14:58:32;21.60;99.50
15690;DHT22;7945;48.816;11.506;2022-10-17T15:01:00;21.60;99.30
15690;DHT22;7945;48.816;11.506;2022-10-17T15:03:27;21.50;99.30
15690;DHT22;7945;48.816;11.506;2022-10-17T15:05:54;21.60;99.60
15690;DHT22;7945;48.816;11.506;2022-10-17T15:08:22;21.60;99.60
15690;DHT22;7945;48.816;11.506;2022-10-17T15:10:50;21.50;99.60
15690;DHT22;7945;48.816;11.506;2022-10-17T15:13:17;21.50;99.90
15690;DHT22;7945;48.816;11.506;2022-10-17T15:15:46;21.50;99.90
15690;DHT22;7945;48.816;11.506;2022-10-17T15:18:15;21.50;99.90
15690;DHT22;7945;48.816;11.506;2022-10-17T15:20:42;21.40;99.90
15690;DHT22;7945;48.816;11.506;2022-10-17T15:23:09;21.50;99.90
15690;DHT22;7945;48.816;11.506;2022-10-17T15:25:36;21.40;99.90
15690;DHT22;7945;48.816;11.506;2022-10-17T15:28:04;21.40;99.90
15690;DHT22;7945;48.816;11.506;2022-10-17T15:30:34;21.30;99.90
15690;DHT22;7945;48.816;11.506;2022-10-17T15:33:02;21.30;99.90
15690;DHT22;7945;48.816;11.506;2022-10-17T15:35:30;21.20;99.90
15690;DHT22;7945;48.816;11.506;2022-10-17T15:37:57;21.20;99.90
15690;DHT22;7945;48.816;11.506;2022-10-17T15:40:25;21.20;99.90
15690;DHT22;7945;48.816;11.506;2022-10-17T15:42:53;21.10;99.90
15690;DHT22;7945;48.816;11.506;2022-10-17T15:45:22;21.00;99.90
15690;DHT22;7945;48.816;11.506;2022-10-17T15:47:50;20.90;99.90
15690;DHT22;7945;48.816;11.506;2022-10-17T15:50:19;20.80;99.90
15690;DHT22;7945;48.816;11.506;2022-10-17T15:52:47;20.80;99.90
15690;DHT22;7945;48.816;11.506;2022-10-17T15:55:16;20.70;99.90
15690;DHT22;7945;48.816;11.506;2022-10-17T15:57:44;20.60;99.90
15690;DHT22;7945;48.816;11.506;2022-10-17T16:00:15;20.60;99.90
15690;DHT22;7945;48.816;11.506;2022-10-17T16:02:42;20.50;99.90